Time;durP1;ratioP1;P1;durP2;ratioP2;P2;SDS_P1;SDS_P2;PMS_P1;PMS_P2;Temp;Humidity;BMP_temperature;BMP_pressure;BME280_temperature;BME280_humidity;BME280_pressure;Samples;Min_cycle;Max_cycle;Signal;HPM_P1;HPM_P2
2022/03/10 00:00:07;;;;;;;15.35;10.23;;;4.00;99.90;;;;;;5046814;28;20514;-72
2022/03/10 00:02:33;;;;;;;16.05;10.80;;;3.90;99.90;;;;;;5042066;28;20223;-72
2022/03/10 00:04:59;;;;;;;13.38;9.43;;;3.90;99.90;;;;;;5062122;28;20050;-71
2022/03/10 00:07:24;;;;;;;16.17;10.35;;;4.10;99.90;;;;;;5040366;28;20417;-71
2022/03/10 00:09:50;;;;;;;19.25;11.50;;;4.00;99.90;;;;;;5027046;28;20095;-73
2022/03/10 00:12:16;;;;;;;15.43;10.70;;;3.90;99.90;;;;;;5065249;28;20099;-72
2022/03/10 00:14:42;;;;;;;17.08;11.07;;;3.90;99.90;;;;;;5041375;28;20109;-72
2022/03/10 00:17:08;;;;;;;15.13;10.70;;;4.20;99.90;;;;;;5062071;28;20044;-73
2022/03/10 00:19:34;;;;;;;15.23;10.27;;;4.30;99.90;;;;;;5061203;28;20131;-73
2022/03/10 00:21:59;;;;;;;17.88;9.68;;;3.70;99.90;;;;;;5026222;28;20267;-73
2022/03/10 00:24:25;;;;;;;16.17;11.00;;;4.30;99.90;;;;;;5056261;28;20067;-73
2022/03/10 00:26:51;;;;;;;16.08;10.10;;;3.60;99.90;;;;;;5041310;28;20226;-73
2022/03/10 00:29:16;;;;;;;15.80;9.68;;;3.60;99.90;;;;;;5045115;28;20040;-73
2022/03/10 00:31:42;;;;;;;15.25;9.60;;;3.70;99.90;;;;;;5045825;28;20388;-73
2022/03/10 00:34:08;;;;;;;14.93;10.80;;;3.50;99.90;;;;;;5045059;28;20033;-73
2022/03/10 00:36:34;;;;;;;16.10;10.38;;;3.60;99.90;;;;;;5044505;28;20238;-73
2022/03/10 00:38:59;;;;;;;24.15;11.18;;;3.50;99.90;;;;;;5056276;28;20602;-73
2022/03/10 00:41:25;;;;;;;15.57;10.77;;;3.40;99.90;;;;;;5042032;28;20115;-73
2022/03/10 00:43:51;;;;;;;15.65;9.98;;;3.30;99.90;;;;;;5036031;28;20052;-73
2022/03/10 00:46:16;;;;;;;16.85;8.77;;;3.60;99.90;;;;;;5040394;28;20078;-73
2022/03/10 00:48:42;;;;;;;14.82;9.80;;;3.30;99.90;;;;;;5061461;28;20048;-73
2022/03/10 00:51:08;;;;;;;13.00;9.05;;;3.20;99.90;;;;;;5039717;28;20079;-73
2022/03/10 00:53:34;;;;;;;16.35;10.07;;;3.10;99.90;;;;;;5055624;28;20075;-73
2022/03/10 00:56:00;;;;;;;13.50;9.02;;;3.10;99.90;;;;;;5043462;28;20299;-73
2022/03/10 00:58:25;;;;;;;15.55;9.70;;;3.00;99.90;;;;;;5054730;28;20055;-73
2022/03/10 01:00:51;;;;;;;15.00;10.10;;;3.20;99.90;;;;;;5044934;28;20048;-72
2022/03/10 01:03:17;;;;;;;17.10;9.80;;;3.00;99.90;;;;;;5049639;28;20047;-73
2022/03/10 01:05:44;;;;;;;18.00;10.00;;;3.20;99.90;;;;;;5062601;28;20098;-73
2022/03/10 01:08:09;;;;;;;14.80;9.23;;;3.00;99.90;;;;;;5055428;28;20115;-72
2022/03/10 01:10:35;;;;;;;15.82;10.00;;;2.90;99.90;;;;;;5060956;28;20051;-72
2022/03/10 01:13:02;;;;;;;17.10;10.07;;;2.90;99.90;;;;;;5049640;28;20048;-72
2022/03/10 01:15:28;;;;;;;13.25;9.82;;;3.00;99.90;;;;;;5064174;28;20048;-72
2022/03/10 01:17:54;;;;;;;15.82;10.55;;;2.90;99.90;;;;;;5071617;28;20276;-72
2022/03/10 01:20:23;;;;;;;15.13;10.88;;;3.10;99.90;;;;;;5060974;28;20048;-73
2022/03/10 01:22:48;;;;;;;17.55;10.70;;;2.80;99.90;;;;;;5061320;28;20032;-73
2022/03/10 01:25:14;;;;;;;17.75;10.90;;;2.90;99.90;;;;;;5044520;28;20032;-73
2022/03/10 01:27:40;;;;;;;18.30;11.00;;;2.80;99.90;;;;;;5058409;28;20048;-73
2022/03/10 01:30:08;;;;;;;17.08;10.25;;;2.80;99.90;;;;;;5061677;28;20043;-73
2022/03/10 01:32:34;;;;;;;17.38;10.52;;;2.80;99.90;;;;;;5045816;28;20051;-73
2022/03/10 01:35:01;;;;;;;15.77;10.25;;;2.90;99.90;;;;;;5046717;28;20041;-73
2022/03/10 01:37:28;;;;;;;16.10;10.95;;;2.80;99.90;;;;;;5043490;28;20040;-73
2022/03/10 01:39:55;;;;;;;14.50;9.45;;;2.80;99.90;;;;;;5062326;28;20082;-73
2022/03/10 01:42:22;;;;;;;16.67;10.13;;;2.70;99.90;;;;;;5062477;28;20326;-73
2022/03/10 01:44:53;;;;;;;17.67;11.48;;;2.80;99.90;;;;;;5051037;28;20039;-73
2022/03/10 01:47:19;;;;;;;13.48;9.18;;;2.70;99.90;;;;;;5061508;28;20067;-73
2022/03/10 01:49:44;;;;;;;17.08;10.75;;;2.70;99.90;;;;;;5067267;28;20111;-73
2022/03/10 01:52:10;;;;;;;19.02;11.13;;;2.70;99.90;;;;;;5046293;28;20207;-73
2022/03/10 01:54:36;;;;;;;18.52;10.95;;;2.70;99.90;;;;;;5061957;28;20071;-73
2022/03/10 01:57:03;;;;;;;14.30;9.48;;;2.70;99.90;;;;;;5050830;28;20045;-73
2022/03/10 01:59:29;;;;;;;15.25;10.20;;;2.60;99.90;;;;;;5063127;28;20108;-73
2022/03/10 02:01:55;;;;;;;17.33;10.07;;;2.80;99.90;;;;;;5025693;28;20259;-73
2022/03/10 02:04:21;;;;;;;16.23;10.50;;;2.60;99.90;;;;;;5042410;28;20195;-73
2022/03/10 02:06:47;;;;;;;15.88;10.13;;;2.90;99.90;;;;;;5039169;28;20049;-74
2022/03/10 02:11:58;;;;;;;16.30;10.00;;;2.40;99.90;;;;;;5037962;28;20043;-74
2022/03/10 02:17:20;;;;;;;14.25;9.60;;;2.60;99.90;;;;;;5031111;28;20322;-74
2022/03/10 02:19:52;;;;;;;15.50;10.25;;;2.40;99.90;;;;;;5029456;28;20052;-74
2022/03/10 02:22:18;;;;;;;15.68;10.20;;;2.30;99.90;;;;;;5039803;28;20094;-74
2022/03/10 02:24:44;;;;;;;15.35;10.30;;;3.00;99.90;;;;;;5022273;28;20044;-74
2022/03/10 02:27:20;;;;;;;17.63;10.20;;;2.30;99.90;;;;;;5037328;28;20100;-74
2022/03/10 02:29:52;;;;;;;18.83;10.88;;;2.20;99.90;;;;;;5039067;28;20059;-74
2022/03/10 02:32:18;;;;;;;15.00;9.98;;;2.20;99.90;;;;;;5020313;28;20045;-74
2022/03/10 02:34:45;;;;;;;17.98;11.20;;;2.60;99.90;;;;;;5024949;28;20045;-74
2022/03/10 02:37:11;;;;;;;16.13;9.98;;;2.20;99.90;;;;;;5037925;28;20052;-74
2022/03/10 02:39:38;;;;;;;16.73;10.10;;;2.10;99.90;;;;;;5023543;28;20044;-74
2022/03/10 02:42:05;;;;;;;16.45;10.40;;;2.20;99.90;;;;;;5043105;28;20052;-74
2022/03/10 02:44:31;;;;;;;16.23;10.65;;;2.10;99.90;;;;;;5040970;28;20293;-73
2022/03/10 02:46:56;;;;;;;15.10;9.82;;;2.20;99.90;;;;;;5004072;28;20125;-73
2022/03/10 02:49:23;;;;;;;16.27;10.25;;;2.20;99.90;;;;;;5025481;28;20117;-73
2022/03/10 02:51:48;;;;;;;16.30;10.10;;;2.20;99.90;;;;;;5053473;28;20041;-73
2022/03/10 02:54:14;;;;;;;16.55;10.35;;;2.20;99.90;;;;;;5025106;28;20047;-73
2022/03/10 02:56:40;;;;;;;18.02;10.98;;;2.20;99.90;;;;;;5039047;28;20122;-73
2022/03/10 02:59:06;;;;;;;16.95;10.52;;;2.20;99.90;;;;;;5006324;28;20341;-74
2022/03/10 03:01:32;;;;;;;14.93;10.15;;;2.20;99.90;;;;;;5042640;28;20417;-74
2022/03/10 03:03:57;;;;;;;16.73;10.55;;;2.10;99.90;;;;;;5048941;28;20029;-73
2022/03/10 03:06:23;;;;;;;15.93;10.00;;;2.10;99.90;;;;;;5037050;28;20039;-73
2022/03/10 03:08:49;;;;;;;15.75;9.93;;;2.10;99.90;;;;;;5043614;28;20113;-73
2022/03/10 03:11:15;;;;;;;19.23;10.77;;;2.30;99.90;;;;;;5059597;28;20029;-73
2022/03/10 03:13:41;;;;;;;16.58;10.45;;;2.00;99.90;;;;;;5060292;28;20036;-73
2022/03/10 03:16:07;;;;;;;16.33;10.57;;;2.20;99.90;;;;;;5045459;28;20049;-73
2022/03/10 03:18:33;;;;;;;16.90;11.20;;;2.00;99.90;;;;;;5072336;28;20039;-73
2022/03/10 03:20:59;;;;;;;16.60;10.48;;;2.10;99.90;;;;;;5064754;28;20344;-73
2022/03/10 03:23:24;;;;;;;15.88;10.07;;;2.10;99.90;;;;;;5039296;28;20024;-73
2022/03/10 03:25:53;;;;;;;18.33;10.32;;;2.10;99.90;;;;;;5056839;28;20052;-73
2022/03/10 03:28:21;;;;;;;17.38;11.10;;;2.20;99.90;;;;;;5059429;28;20052;-72
2022/03/10 03:30:47;;;;;;;17.17;11.40;;;2.50;99.90;;;;;;5036156;28;20048;-74
2022/03/10 03:33:13;;;;;;;15.60;10.48;;;2.60;99.90;;;;;;5057259;28;20045;-73
2022/03/10 03:35:39;;;;;;;17.13;10.43;;;2.10;99.90;;;;;;5063182;28;20040;-74
2022/03/10 03:38:05;;;;;;;16.50;10.18;;;2.10;99.90;;;;;;5053333;28;20353;-73
2022/03/10 03:40:30;;;;;;;17.13;10.55;;;2.00;99.90;;;;;;5048831;28;20107;-73
2022/03/10 03:42:56;;;;;;;21.30;10.88;;;2.00;99.90;;;;;;5054127;28;20135;-73
2022/03/10 03:45:22;;;;;;;15.05;11.48;;;2.00;99.90;;;;;;5050476;28;20325;-74
2022/03/10 03:47:48;;;;;;;18.77;9.90;;;2.00;99.90;;;;;;5070619;28;20244;-73
2022/03/10 03:50:14;;;;;;;17.27;11.40;;;2.70;99.90;;;;;;5074886;28;20048;-73
2022/03/10 03:52:40;;;;;;;16.27;10.38;;;1.90;99.90;;;;;;5078181;28;20051;-73
2022/03/10 03:55:07;;;;;;;16.48;10.40;;;1.90;99.90;;;;;;5063594;28;20052;-72
2022/03/10 03:57:32;;;;;;;18.35;10.20;;;1.80;99.90;;;;;;5053011;28;20342;-72
2022/03/10 03:59:58;;;;;;;17.27;10.52;;;1.80;99.90;;;;;;5072482;28;20060;-73
2022/03/10 04:02:24;;;;;;;19.88;11.05;;;1.80;99.90;;;;;;5058635;28;20041;-72
2022/03/10 04:04:49;;;;;;;15.88;10.65;;;1.80;99.90;;;;;;5063203;28;20040;-72
2022/03/10 04:07:15;;;;;;;16.80;10.48;;;1.80;99.90;;;;;;5071149;28;20036;-73
2022/03/10 04:09:41;;;;;;;17.33;11.30;;;1.70;99.90;;;;;;5074112;28;20315;-72
2022/03/10 04:12:07;;;;;;;15.93;9.75;;;1.80;99.90;;;;;;5076484;28;20036;-73
2022/03/10 04:14:33;;;;;;;14.75;10.05;;;1.70;99.90;;;;;;5079325;28;20254;-73
2022/03/10 04:16:59;;;;;;;17.02;10.88;;;1.70;99.90;;;;;;5041727;28;20047;-73
2022/03/10 04:19:24;;;;;;;17.02;9.93;;;2.20;99.90;;;;;;5065957;28;20032;-73
2022/03/10 04:21:50;;;;;;;15.93;9.57;;;1.70;99.90;;;;;;5023507;28;20057;-73
2022/03/10 04:24:16;;;;;;;17.67;10.05;;;1.70;99.90;;;;;;5060848;28;20226;-73
2022/03/10 04:26:42;;;;;;;15.43;9.30;;;1.70;99.90;;;;;;5067587;28;20089;-73
2022/03/10 04:29:08;;;;;;;14.57;9.13;;;1.70;99.90;;;;;;5053908;28;20047;-73
2022/03/10 04:31:33;;;;;;;14.70;9.15;;;1.60;99.90;;;;;;5060240;28;20040;-73
2022/03/10 04:33:59;;;;;;;17.13;10.80;;;2.40;99.90;;;;;;5074464;28;20234;-72
2022/03/10 04:36:25;;;;;;;15.85;9.77;;;1.20;99.90;;;;;;5076601;28;20053;-74
2022/03/10 04:38:51;;;;;;;13.77;9.80;;;1.20;99.90;;;;;;5061625;28;20052;-73
2022/03/10 04:41:17;;;;;;;15.15;9.75;;;1.00;99.90;;;;;;5034204;28;20036;-73
2022/03/10 04:43:43;;;;;;;15.27;10.07;;;0.80;99.90;;;;;;5063281;28;20040;-73
2022/03/10 04:46:08;;;;;;;17.48;10.57;;;0.90;99.90;;;;;;5036765;28;20086;-73
2022/03/10 04:48:34;;;;;;;16.25;10.15;;;1.40;99.90;;;;;;5060918;28;20111;-73
2022/03/10 04:51:00;;;;;;;17.83;10.40;;;1.00;99.90;;;;;;5065964;28;20124;-73
2022/03/10 04:53:26;;;;;;;18.33;10.48;;;1.60;99.90;;;;;;5037426;28;20055;-73
2022/03/10 04:55:52;;;;;;;15.73;9.48;;;1.00;99.90;;;;;;5063415;28;20082;-73
2022/03/10 04:58:18;;;;;;;15.13;9.93;;;1.10;99.90;;;;;;5041453;28;20036;-73
2022/03/10 05:00:44;;;;;;;15.48;9.57;;;1.10;99.90;;;;;;5073508;28;20395;-73
2022/03/10 05:03:09;;;;;;;18.05;9.98;;;1.00;99.90;;;;;;5015771;28;20036;-73
2022/03/10 05:05:35;;;;;;;13.15;9.10;;;1.10;99.90;;;;;;5057952;28;20067;-73
2022/03/10 05:08:01;;;;;;;13.13;9.10;;;1.40;99.90;;;;;;5052375;28;20070;-74
2022/03/10 05:10:27;;;;;;;15.40;9.45;;;1.60;99.90;;;;;;5049960;28;20048;-73
2022/03/10 05:12:56;;;;;;;14.00;8.93;;;1.90;99.90;;;;;;5050671;28;20063;-74
2022/03/10 05:15:26;;;;;;;13.63;9.00;;;1.10;99.90;;;;;;5061787;28;20032;-73
2022/03/10 05:17:52;;;;;;;13.43;8.93;;;1.00;99.90;;;;;;5069015;28;20036;-74
2022/03/10 05:20:18;;;;;;;13.75;8.25;;;1.00;99.90;;;;;;5066933;28;20066;-73
2022/03/10 05:22:55;;;;;;;15.77;8.57;;;1.00;99.90;;;;;;5046179;28;20039;-73
2022/03/10 05:25:24;;;;;;;14.82;8.93;;;1.10;99.90;;;;;;5054534;28;20186;-74
2022/03/10 05:27:50;;;;;;;14.95;9.07;;;1.40;99.90;;;;;;5065733;28;20044;-73
2022/03/10 05:30:18;;;;;;;16.33;10.07;;;1.10;99.90;;;;;;5070467;28;20041;-73
2022/03/10 05:32:44;;;;;;;16.52;10.20;;;1.10;99.90;;;;;;5072268;28;20044;-74
2022/03/10 05:35:14;;;;;;;17.65;10.57;;;1.10;99.90;;;;;;5065513;28;20494;-73
2022/03/10 05:37:40;;;;;;;18.02;10.00;;;1.10;99.90;;;;;;5032242;28;21176;-73
2022/03/10 05:40:08;;;;;;;18.05;10.70;;;1.10;99.90;;;;;;5065886;28;20059;-73
2022/03/10 05:42:34;;;;;;;21.00;9.60;;;1.10;99.90;;;;;;5064712;28;20428;-73
2022/03/10 05:45:00;;;;;;;15.27;9.70;;;1.20;99.90;;;;;;5045999;28;20353;-73
2022/03/10 05:47:25;;;;;;;16.40;9.20;;;2.20;99.90;;;;;;5066375;28;20222;-74
2022/03/10 05:49:51;;;;;;;15.93;9.70;;;1.20;99.90;;;;;;5045456;28;20198;-74
2022/03/10 05:52:17;;;;;;;15.20;9.50;;;1.50;99.90;;;;;;5029655;28;20314;-74
2022/03/10 05:54:43;;;;;;;17.45;9.52;;;1.30;99.90;;;;;;5059513;28;20214;-73
2022/03/10 05:57:08;;;;;;;15.93;10.05;;;1.30;99.90;;;;;;5049891;28;20082;-73
2022/03/10 05:59:34;;;;;;;16.05;10.05;;;1.70;99.90;;;;;;5066595;28;20111;-74
2022/03/10 06:02:00;;;;;;;15.25;9.23;;;1.30;99.90;;;;;;5046415;28;20044;-73
2022/03/10 06:04:25;;;;;;;15.45;10.02;;;1.40;99.90;;;;;;5061462;28;20226;-72
2022/03/10 06:06:51;;;;;;;14.95;9.60;;;2.10;99.90;;;;;;5058583;28;20040;-73
2022/03/10 06:09:17;;;;;;;16.15;10.43;;;1.30;99.90;;;;;;5049060;28;20044;-73
2022/03/10 06:11:43;;;;;;;16.38;9.27;;;1.40;99.90;;;;;;5065119;28;20032;-72
2022/03/10 06:14:10;;;;;;;15.63;9.52;;;1.40;99.90;;;;;;5061812;28;20041;-72
2022/03/10 06:16:35;;;;;;;16.58;9.73;;;1.40;99.90;;;;;;5060258;28;20122;-72
2022/03/10 06:19:01;;;;;;;16.08;9.80;;;1.40;99.90;;;;;;5061821;28;20036;-73
2022/03/10 06:21:28;;;;;;;17.58;9.05;;;1.90;99.90;;;;;;5027728;28;20032;-72
2022/03/10 06:23:54;;;;;;;14.18;8.20;;;1.50;99.90;;;;;;5048285;28;20300;-73
2022/03/10 06:26:20;;;;;;;16.45;9.63;;;1.60;99.90;;;;;;5028804;28;20409;-74
2022/03/10 06:28:45;;;;;;;14.80;9.55;;;1.60;99.90;;;;;;5032808;28;20342;-74
2022/03/10 06:31:11;;;;;;;14.00;8.75;;;1.70;99.90;;;;;;5073945;28;20036;-73
2022/03/10 06:33:37;;;;;;;16.58;9.50;;;1.70;99.90;;;;;;5054657;28;20338;-72
2022/03/10 06:36:04;;;;;;;16.02;10.48;;;1.90;99.90;;;;;;5060489;28;20047;-72
2022/03/10 06:38:30;;;;;;;15.35;9.32;;;1.90;99.90;;;;;;5070211;28;20032;-71
2022/03/10 06:40:56;;;;;;;16.27;10.23;;;2.00;99.90;;;;;;5027692;28;20052;-71
2022/03/10 06:43:22;;;;;;;15.32;9.98;;;2.00;99.90;;;;;;5053387;28;20131;-72
2022/03/10 06:45:48;;;;;;;14.60;9.02;;;2.20;99.90;;;;;;5056515;28;20051;-72
2022/03/10 06:48:14;;;;;;;14.70;9.00;;;2.40;99.90;;;;;;5048145;28;20064;-72
2022/03/10 06:50:40;;;;;;;19.10;9.40;;;3.20;99.90;;;;;;5055631;28;20261;-73
2022/03/10 06:53:05;;;;;;;15.80;9.65;;;2.70;99.90;;;;;;5044664;28;20036;-72
2022/03/10 06:55:31;;;;;;;16.05;9.57;;;2.70;99.90;;;;;;5027963;28;20076;-72
2022/03/10 06:57:57;;;;;;;16.27;10.40;;;2.70;99.90;;;;;;5054440;28;20113;-73
2022/03/10 07:00:23;;;;;;;14.20;9.27;;;2.80;99.90;;;;;;5065447;28;20309;-73
2022/03/10 07:02:52;;;;;;;14.40;8.25;;;3.00;99.90;;;;;;5063843;28;20055;-72
2022/03/10 07:05:18;;;;;;;20.45;11.40;;;3.20;99.90;;;;;;5048664;28;20050;-72
2022/03/10 07:07:43;;;;;;;16.25;9.35;;;3.20;99.90;;;;;;5029906;28;20048;-72
2022/03/10 07:10:10;;;;;;;15.85;9.85;;;3.50;99.90;;;;;;5044720;28;20037;-74
2022/03/10 07:12:37;;;;;;;17.10;9.57;;;3.40;99.90;;;;;;5047785;28;20333;-74
2022/03/10 07:15:05;;;;;;;15.32;9.30;;;3.60;99.90;;;;;;5065723;28;20107;-74
2022/03/10 07:17:30;;;;;;;16.67;10.50;;;3.60;99.90;;;;;;5059896;28;20270;-73
2022/03/10 07:19:56;;;;;;;16.17;10.25;;;3.90;99.90;;;;;;5058551;28;20037;-74
2022/03/10 07:22:23;;;;;;;19.00;10.43;;;3.60;99.90;;;;;;5065246;28;20159;-73
2022/03/10 07:24:48;;;;;;;16.63;9.98;;;3.80;99.90;;;;;;5028946;28;20044;-73
2022/03/10 07:27:14;;;;;;;15.77;9.82;;;4.10;99.90;;;;;;5081165;28;20060;-73
2022/03/10 07:29:40;;;;;;;17.23;10.85;;;4.00;99.90;;;;;;5065173;28;20047;-74
2022/03/10 07:32:06;;;;;;;17.17;10.55;;;4.00;99.90;;;;;;5046187;28;20230;-73
2022/03/10 07:34:32;;;;;;;16.75;10.38;;;4.20;99.90;;;;;;5049463;28;20032;-73
2022/03/10 07:36:58;;;;;;;15.30;9.85;;;4.30;99.90;;;;;;5048160;28;20258;-74
2022/03/10 07:39:23;;;;;;;18.98;10.73;;;4.60;99.90;;;;;;5033985;28;20041;-73
2022/03/10 07:41:49;;;;;;;12.90;8.90;;;4.50;99.90;;;;;;5048624;28;20247;-73
2022/03/10 07:44:15;;;;;;;16.08;9.60;;;4.60;99.90;;;;;;5064264;28;20072;-73
2022/03/10 07:46:40;;;;;;;15.82;10.60;;;5.10;99.90;;;;;;5048351;28;20038;-72
2022/03/10 07:49:06;;;;;;;19.65;11.60;;;4.70;99.90;;;;;;5047318;28;20051;-73
2022/03/10 07:51:32;;;;;;;16.90;10.90;;;4.70;99.90;;;;;;5037855;28;20219;-72
2022/03/10 07:53:58;;;;;;;17.92;11.40;;;4.70;99.90;;;;;;5060443;28;20315;-72
2022/03/10 07:56:23;;;;;;;19.42;11.98;;;4.80;99.90;;;;;;5046847;28;20036;-72
2022/03/10 07:58:50;;;;;;;17.02;10.13;;;4.80;99.90;;;;;;5046396;28;20261;-73
2022/03/10 08:01:16;;;;;;;16.92;9.70;;;4.90;99.90;;;;;;5039817;28;20082;-72
2022/03/10 08:03:42;;;;;;;16.67;10.20;;;5.00;99.90;;;;;;5062382;28;20044;-72
2022/03/10 08:06:08;;;;;;;14.48;9.52;;;5.10;99.90;;;;;;5079597;28;20036;-73
2022/03/10 08:08:34;;;;;;;14.32;9.75;;;5.20;99.90;;;;;;5050826;28;20040;-73
2022/03/10 08:11:00;;;;;;;15.52;11.23;;;5.20;99.90;;;;;;5046718;28;20041;-74
2022/03/10 08:13:27;;;;;;;17.17;11.73;;;5.30;99.90;;;;;;5040730;28;20245;-73
2022/03/10 08:15:53;;;;;;;21.20;13.82;;;5.50;99.90;;;;;;5060285;28;20068;-73
2022/03/10 08:18:20;;;;;;;28.15;16.23;;;5.70;99.90;;;;;;5079333;28;20094;-73
2022/03/10 08:20:46;;;;;;;25.15;15.35;;;5.80;99.90;;;;;;5063802;28;20280;-71
2022/03/10 08:23:12;;;;;;;19.23;13.63;;;6.00;99.90;;;;;;5049477;28;20045;-73
2022/03/10 08:25:38;;;;;;;19.20;12.43;;;6.00;99.90;;;;;;5047550;28;20229;-73
2022/03/10 08:28:08;;;;;;;17.45;11.23;;;6.20;99.90;;;;;;5055688;28;20068;-72
2022/03/10 08:30:34;;;;;;;14.52;10.25;;;6.40;99.90;;;;;;5060347;28;20177;-73
2022/03/10 08:33:01;;;;;;;17.30;9.25;;;6.40;99.90;;;;;;5042265;28;20351;-72
2022/03/10 08:35:27;;;;;;;15.75;9.23;;;6.60;99.90;;;;;;5069400;28;20045;-73
2022/03/10 08:37:52;;;;;;;14.88;9.25;;;6.60;99.90;;;;;;5045337;28;20108;-72
2022/03/10 08:40:19;;;;;;;15.95;10.60;;;6.70;99.90;;;;;;5056134;28;20037;-72
2022/03/10 08:42:47;;;;;;;13.70;9.40;;;7.00;99.90;;;;;;5078311;28;20029;-73
2022/03/10 08:45:13;;;;;;;13.88;8.20;;;7.00;99.90;;;;;;5057818;28;20060;-75
2022/03/10 08:47:40;;;;;;;15.90;10.77;;;7.10;99.90;;;;;;5078924;28;20082;-74
2022/03/10 08:50:07;;;;;;;13.23;9.05;;;7.20;99.90;;;;;;5069724;28;20086;-74
2022/03/10 08:52:33;;;;;;;15.13;10.00;;;7.40;99.90;;;;;;5049867;28;20195;-74
2022/03/10 08:54:59;;;;;;;15.27;9.18;;;7.60;99.90;;;;;;5063674;28;20040;-74
2022/03/10 08:57:24;;;;;;;14.23;9.65;;;7.70;99.90;;;;;;5062754;28;20040;-73
2022/03/10 08:59:53;;;;;;;15.30;10.32;;;7.80;99.90;;;;;;5050504;28;20048;-74
2022/03/10 09:02:19;;;;;;;14.55;9.13;;;7.90;98.40;;;;;;5044373;28;20048;-73
2022/03/10 09:04:45;;;;;;;18.45;10.23;;;8.10;98.10;;;;;;5066637;28;20445;-73
2022/03/10 09:07:11;;;;;;;17.42;10.25;;;8.10;97.70;;;;;;5026389;28;20408;-74
2022/03/10 09:09:36;;;;;;;13.52;8.82;;;8.40;97.30;;;;;;5051585;28;20273;-73
2022/03/10 09:12:03;;;;;;;15.38;10.50;;;8.50;93.50;;;;;;5077113;28;20039;-73
2022/03/10 09:14:29;;;;;;;13.45;9.32;;;8.80;93.30;;;;;;5078946;28;20187;-73
2022/03/10 09:16:55;;;;;;;16.92;10.05;;;8.80;91.50;;;;;;5062517;28;20037;-73
2022/03/10 09:19:21;;;;;;;15.55;10.27;;;9.00;91.60;;;;;;5077177;28;20094;-73
2022/03/10 09:21:47;;;;;;;13.02;8.77;;;9.30;90.70;;;;;;5062425;28;20040;-73
2022/03/10 09:24:12;;;;;;;17.38;9.70;;;9.30;84.30;;;;;;5037835;28;20033;-73
2022/03/10 09:26:38;;;;;;;14.52;9.73;;;9.30;84.70;;;;;;5044551;28;20040;-73
2022/03/10 09:29:04;;;;;;;16.20;9.85;;;9.50;83.30;;;;;;5055457;28;20028;-73
2022/03/10 09:31:31;;;;;;;15.32;10.02;;;9.50;80.50;;;;;;5067584;28;20036;-73
2022/03/10 09:33:56;;;;;;;12.63;8.90;;;9.60;79.20;;;;;;5058485;28;20490;-73
2022/03/10 09:36:22;;;;;;;14.90;8.73;;;9.60;79.90;;;;;;5078598;28;20111;-73
2022/03/10 09:38:48;;;;;;;13.52;9.90;;;9.90;79.90;;;;;;5057698;28;20041;-73
2022/03/10 09:41:17;;;;;;;14.70;10.20;;;10.10;80.00;;;;;;5062176;28;20090;-73
2022/03/10 09:43:42;;;;;;;12.30;9.00;;;9.90;76.40;;;;;;5068875;28;20036;-73
2022/03/10 09:46:11;;;;;;;14.23;10.30;;;9.90;76.70;;;;;;5041518;28;20113;-73
2022/03/10 09:48:39;;;;;;;16.45;11.32;;;10.20;78.30;;;;;;5059070;28;20074;-73
2022/03/10 09:51:05;;;;;;;13.98;9.98;;;10.20;77.70;;;;;;5061188;28;20036;-73
2022/03/10 09:53:34;;;;;;;14.85;10.82;;;10.40;75.20;;;;;;5027561;28;20041;-73
2022/03/10 09:56:01;;;;;;;13.93;10.55;;;10.40;74.30;;;;;;5070796;28;20036;-74
2022/03/10 09:58:27;;;;;;;15.57;10.80;;;10.70;74.90;;;;;;5078704;28;20047;-74
2022/03/10 10:01:03;;;;;;;13.63;10.35;;;10.90;74.60;;;;;;5060126;28;20053;-74
2022/03/10 10:03:29;;;;;;;16.15;10.02;;;11.20;71.70;;;;;;5061968;28;20048;-72
2022/03/10 10:05:59;;;;;;;15.98;10.85;;;11.30;70.00;;;;;;5044734;28;20040;-72
2022/03/10 10:08:25;;;;;;;15.43;11.77;;;11.50;69.40;;;;;;5078655;28;20384;-73
2022/03/10 10:10:53;;;;;;;14.55;11.15;;;11.90;68.60;;;;;;5059824;28;20326;-74
2022/03/10 10:13:43;;;;;;;14.93;10.93;;;12.10;66.40;;;;;;5041054;28;20121;-74
2022/03/10 10:16:10;;;;;;;15.38;10.60;;;12.00;65.10;;;;;;5046082;28;20384;-73
2022/03/10 10:18:38;;;;;;;15.50;11.20;;;11.80;65.20;;;;;;5055493;28;20079;-73
2022/03/10 10:21:05;;;;;;;16.73;11.55;;;12.20;66.10;;;;;;5070732;28;20237;-73
2022/03/10 10:23:33;;;;;;;17.65;11.63;;;12.00;60.80;;;;;;5053505;28;20043;-76
2022/03/10 10:26:07;;;;;;;15.88;11.13;;;12.00;60.30;;;;;;5046020;28;20295;-73
2022/03/10 10:28:41;;;;;;;17.23;10.88;;;11.90;60.90;;;;;;5072501;28;20330;-75
2022/03/10 10:31:12;;;;;;;13.47;10.80;;;12.10;59.50;;;;;;5046549;28;20253;-74
2022/03/10 10:33:40;;;;;;;14.82;11.45;;;12.20;60.30;;;;;;5060093;28;20287;-73
2022/03/10 10:36:14;;;;;;;16.23;12.25;;;11.90;60.10;;;;;;5042061;28;20396;-77
2022/03/10 10:38:41;;;;;;;15.00;11.25;;;12.00;61.00;;;;;;5066533;28;20045;-71
2022/03/10 10:41:26;;;;;;;14.65;11.48;;;12.20;60.90;;;;;;5056537;28;20059;-72
2022/03/10 10:44:02;;;;;;;;;;;12.30;59.50;;;;;;5059039;28;20085;-72
2022/03/10 10:46:35;;;;;;;14.95;10.80;;;12.50;58.90;;;;;;5049007;28;19920;-71
2022/03/10 10:49:10;;;;;;;15.60;10.40;;;12.30;59.20;;;;;;5059600;28;21125;-72
2022/03/10 10:51:45;;;;;;;14.80;9.93;;;12.50;58.90;;;;;;5060229;28;20044;-72
2022/03/10 10:54:24;;;;;;;15.00;10.50;;;12.50;59.10;;;;;;5050585;28;20055;-72
2022/03/10 10:56:57;;;;;;;15.27;11.32;;;12.60;60.10;;;;;;5064278;28;20044;-72
2022/03/10 10:59:39;;;;;;;14.93;11.50;;;12.70;60.20;;;;;;5076380;28;20393;-72
2022/03/10 11:02:10;;;;;;;14.85;11.27;;;12.60;58.50;;;;;;5046446;28;20258;-72
2022/03/10 11:04:37;;;;;;;15.88;11.23;;;12.60;58.00;;;;;;5060627;28;20093;-72
2022/03/10 11:07:04;;;;;;;12.38;10.20;;;12.70;57.90;;;;;;5025600;28;20044;-72
2022/03/10 11:09:33;;;;;;;16.45;11.27;;;13.10;56.50;;;;;;5047925;28;20048;-72
2022/03/10 11:11:59;;;;;;;18.70;10.88;;;12.80;56.10;;;;;;5038121;28;20083;-73
2022/03/10 11:14:26;;;;;;;16.60;11.43;;;13.00;55.80;;;;;;5073020;28;20037;-72
2022/03/10 11:16:53;;;;;;;16.02;10.27;;;13.00;56.80;;;;;;5067127;28;20056;-72
2022/03/10 11:19:25;;;;;;;13.60;9.93;;;13.00;55.60;;;;;;5058457;28;20048;-73
2022/03/10 11:22:09;;;;;;;13.77;10.38;;;13.30;56.50;;;;;;5059645;28;20052;-72
2022/03/10 11:25:03;;;;;;;15.35;11.15;;;13.20;56.70;;;;;;5069093;28;20064;-73
2022/03/10 11:28:09;;;;;;;14.00;10.02;;;13.10;55.30;;;;;;5059764;28;20116;-73
2022/03/10 11:30:35;;;;;;;12.65;9.93;;;13.20;55.90;;;;;;5019605;28;20055;-73
2022/03/10 11:33:09;;;;;;;16.58;10.90;;;13.40;55.40;;;;;;5038653;28;20390;-73
2022/03/10 11:35:46;;;;;;;15.88;10.88;;;13.20;53.70;;;;;;5056131;28;20060;-73
2022/03/10 11:38:13;;;;;;;13.82;10.63;;;13.50;53.30;;;;;;5039005;28;20338;-74
2022/03/10 11:40:50;;;;;;;13.35;10.55;;;13.30;53.10;;;;;;5025980;28;20056;-74
2022/03/10 11:43:20;;;;;;;15.27;11.50;;;13.50;53.80;;;;;;5059210;28;20048;-74
2022/03/10 11:45:46;;;;;;;16.85;12.00;;;13.40;52.60;;;;;;5059138;28;20413;-74
2022/03/10 11:48:35;;;;;;;16.75;12.00;;;13.50;53.20;;;;;;5043075;28;20618;-74
2022/03/10 11:51:09;;;;;;;13.65;10.93;;;13.60;52.50;;;;;;5047200;28;20147;-74
2022/03/10 11:53:55;;;;;;;20.25;11.38;;;13.80;54.20;;;;;;5076782;28;20276;-74
2022/03/10 11:56:43;;;;;;;19.15;12.75;;;13.60;49.90;;;;;;5059210;28;20052;-74
2022/03/10 11:59:18;;;;;;;16.13;12.45;;;13.80;50.50;;;;;;5057057;28;20353;-74
2022/03/10 12:01:44;;;;;;;19.88;12.35;;;13.70;50.20;;;;;;5058642;28;20052;-74
2022/03/10 12:04:17;;;;;;;15.77;12.35;;;13.70;49.40;;;;;;5075566;28;20052;-73
2022/03/10 12:06:55;;;;;;;18.95;11.57;;;13.80;48.70;;;;;;5059237;28;20147;-74
2022/03/10 12:09:38;;;;;;;18.25;12.30;;;13.90;49.20;;;;;;5074906;28;20041;-74
2022/03/10 12:12:20;;;;;;;17.70;11.32;;;13.80;48.80;;;;;;5074967;28;20056;-74
2022/03/10 12:14:47;;;;;;;14.70;11.50;;;13.90;49.10;;;;;;5075399;28;20203;-74
2022/03/10 12:17:44;;;;;;;14.77;10.00;;;14.10;49.80;;;;;;5075290;28;20044;-74
2022/03/10 12:20:21;;;;;;;20.52;13.63;;;13.90;47.60;;;;;;5070151;28;20051;-74
2022/03/10 12:23:12;;;;;;;16.90;11.82;;;14.00;48.70;;;;;;5058345;28;20139;-74
2022/03/10 12:25:49;;;;;;;17.88;12.23;;;13.90;47.50;;;;;;5056562;28;20380;-73
2022/03/10 12:28:24;;;;;;;18.30;12.18;;;14.00;47.80;;;;;;5058169;28;20037;-75
2022/03/10 12:31:16;;;;;;;15.50;11.45;;;14.50;48.10;;;;;;5073805;28;20111;-74
2022/03/10 12:33:46;;;;;;;16.10;11.90;;;14.40;47.10;;;;;;5064567;28;20052;-74
2022/03/10 12:36:15;;;;;;;15.00;11.00;;;14.50;47.50;;;;;;5075070;28;20303;-73
2022/03/10 12:38:46;;;;;;;15.82;10.77;;;14.50;46.90;;;;;;5041864;28;20055;-73
2022/03/10 12:41:17;;;;;;;17.23;12.85;;;14.70;46.60;;;;;;5041223;28;20057;-73
2022/03/10 12:43:43;;;;;;;20.13;12.43;;;14.60;46.40;;;;;;5058372;28;20049;-74
2022/03/10 12:46:09;;;;;;;17.80;12.18;;;14.70;46.50;;;;;;5058014;28;20048;-75